Terminal Aerodrome Forecast
Issued by NWS Wilmington, NC

Home | Current Version | Previous Version | Text Only | Print | Product List | Glossary On
Versions: 1 2 3 4 5 6 7 8 9 10 11 12 13 14 15 16
000
FTUS42 KILM 292332
TAFFLO
TAF
KFLO 292332Z 3000/3024 11005KT P6SM SCT250
     FM300600 VRB03KT P6SM SCT120
     FM300900 00000KT 4SM BR SCT001
      TEMPO 3009/3013 1 1/2SM BR
     FM301500 VRB04KT P6SM SCT250
     FM301800 07006KT P6SM BKN250=

USA.gov is the U.S. government's official web portal to all federal, state and local government web resources and services.